This is the latest recevied weather packets stored in our database for station/object M8FSI-13. If no packets are shown the sender has not sent any weather packets the latest 10 day(s).
| Time | Temp. | Humidity | Pressure | Rain* | Wind** | Luminosity | Snow |
|---|---|---|---|---|---|---|---|
| 1777520755 | 11.67° C | 53% | 1021.5 hPa | 0 mm | - | - | - |
| 1777517719 | 11.67° C | 53% | 1021.7 hPa | 0 mm | - | - | - |
| 1777513539 | 12.22° C | 53% | 1021.5 hPa | 0 mm | - | - | - |
| 1777504519 | 13.33° C | 51% | 1021.8 hPa | 0 mm | - | - | - |
| 1777503924 | 13.33° C | 51% | 1021.7 hPa | 0 mm | - | - | - |
| 1777497333 | 12.78° C | 57% | 1021.7 hPa | 0 mm | - | - | - |
| 1777496719 | 12.78° C | 57% | 1021.7 hPa | 0 mm | - | - | - |
| 1777493719 | 12.78° C | 57% | 1021.5 hPa | 0 mm | - | - | - |
| 1777475135 | 17.78° C | 44% | 1021 hPa | 0 mm | - | - | - |
| 1777473955 | 18.33° C | 42% | 1021.1 hPa | 0 mm | - | - | - |
| 1777472140 | 18.33° C | 42% | 1021.3 hPa | 0 mm | - | - | - |
| 1777469140 | 18.33° C | 39% | 1021.5 hPa | 0 mm | - | - | - |
| 1777461919 | 17.78° C | 39% | 1021.8 hPa | 0 mm | - | - | - |
| 1777460735 | 17.78° C | 40% | 1021.6 hPa | 0 mm | - | - | - |
| 1777459540 | 17.78° C | 41% | 1021.7 hPa | 0 mm | - | - | - |
| 1777455349 | 16.67° C | 43% | 1022 hPa | 0 mm | - | - | - |
| 1777454134 | 16.11° C | 45% | 1021.8 hPa | 0 mm | - | - | - |
| 1777451144 | 15° C | 51% | 1021.9 hPa | 0 mm | - | - | - |
| 1777449934 | 15° C | 53% | 1021.9 hPa | 0 mm | - | - | - |
| 1777449335 | 14.44° C | 54% | 1021.8 hPa | 0 mm | - | - | - |
| 1777447520 | 13.89° C | 60% | 1022.2 hPa | 0 mm | - | - | - |
| 1777437334 | 9.44° C | 76% | 1021.2 hPa | 0 mm | - | - | - |
| 1777434333 | 9.44° C | 75% | 1021.2 hPa | 0 mm | - | - | - |
| 1777432519 | 9.44° C | 73% | 1021.3 hPa | 0 mm | - | - | - |
| 1777428349 | 8.89° C | 73% | 1021.6 hPa | 0 mm | - | - | - |
* Rain latest hour (hover to see other rain measurements)
** Current wind speed in m/s (hover to see current wind gust speed)